sensor_id;sensor_type;location;lat;lon;timestamp;pressure;altitude;pressure_sealevel;temperature;humidity
63111;BME280;49201;53.426;10.300;2022-09-17T00:01:56;100440.38;;;12.96;100.00
63111;BME280;49201;53.426;10.300;2022-09-17T00:04:22;100445.56;;;12.98;100.00
63111;BME280;49201;53.426;10.300;2022-09-17T00:06:48;100446.38;;;12.98;100.00
63111;BME280;49201;53.426;10.300;2022-09-17T00:09:13;100448.97;;;12.98;100.00
63111;BME280;49201;53.426;10.300;2022-09-17T00:11:41;100442.97;;;12.98;100.00
63111;BME280;49201;53.426;10.300;2022-09-17T00:14:11;100455.84;;;12.98;100.00
63111;BME280;49201;53.426;10.300;2022-09-17T00:16:39;100450.69;;;12.98;100.00
63111;BME280;49201;53.426;10.300;2022-09-17T00:19:07;100450.63;;;12.94;100.00
63111;BME280;49201;53.426;10.300;2022-09-17T00:21:35;100452.34;;;12.93;100.00
63111;BME280;49201;53.426;10.300;2022-09-17T00:24:03;100453.19;;;12.90;100.00
63111;BME280;49201;53.426;10.300;2022-09-17T00:26:30;100456.59;;;12.89;100.00
63111;BME280;49201;53.426;10.300;2022-09-17T00:28:56;100458.31;;;12.91;100.00
63111;BME280;49201;53.426;10.300;2022-09-17T00:31:22;100453.19;;;12.93;100.00
63111;BME280;49201;53.426;10.300;2022-09-17T00:33:48;100457.47;;;12.91;100.00
63111;BME280;49201;53.426;10.300;2022-09-17T00:36:14;100458.34;;;12.90;100.00
63111;BME280;49201;53.426;10.300;2022-09-17T00:38:39;100459.16;;;12.89;100.00
63111;BME280;49201;53.426;10.300;2022-09-17T00:41:05;100453.19;;;12.90;100.00
63111;BME280;49201;53.426;10.300;2022-09-17T00:43:52;100458.34;;;12.90;100.00
63111;BME280;49201;53.426;10.300;2022-09-17T00:46:39;100460.91;;;12.90;100.00
63111;BME280;49201;53.426;10.300;2022-09-17T00:49:18;100469.47;;;12.92;100.00
63111;BME280;49201;53.426;10.300;2022-09-17T00:51:52;100460.88;;;12.91;100.00
63111;BME280;49201;53.426;10.300;2022-09-17T00:54:19;100463.47;;;12.91;100.00
63111;BME280;49201;53.426;10.300;2022-09-17T00:56:45;100469.47;;;12.90;100.00
63111;BME280;49201;53.426;10.300;2022-09-17T00:59:11;100466.91;;;12.90;100.00
63111;BME280;49201;53.426;10.300;2022-09-17T01:01:37;100478.03;;;12.91;100.00
63111;BME280;49201;53.426;10.300;2022-09-17T01:04:03;100467.75;;;12.91;100.00
63111;BME280;49201;53.426;10.300;2022-09-17T01:06:35;100466.88;;;12.89;100.00
63111;BME280;49201;53.426;10.300;2022-09-17T01:17:27;100475.41;;;12.74;100.00
63111;BME280;49201;53.426;10.300;2022-09-17T01:20:21;100479.66;;;12.69;100.00
63111;BME280;49201;53.426;10.300;2022-09-17T01:26:01;100477.03;;;12.63;100.00
63111;BME280;49201;53.426;10.300;2022-09-17T01:28:50;100472.75;;;12.62;100.00
63111;BME280;49201;53.426;10.300;2022-09-17T01:31:36;100483.00;;;12.56;99.66
63111;BME280;49201;53.426;10.300;2022-09-17T01:34:19;100479.56;;;12.53;100.00
63111;BME280;49201;53.426;10.300;2022-09-17T01:42:58;100477.78;;;12.44;99.93
63111;BME280;49201;53.426;10.300;2022-09-17T01:45:39;100485.50;;;12.41;99.51
63111;BME280;49201;53.426;10.300;2022-09-17T01:48:14;100481.19;;;12.40;99.50
63111;BME280;49201;53.426;10.300;2022-09-17T01:50:55;100485.47;;;12.38;99.31
63111;BME280;49201;53.426;10.300;2022-09-17T01:53:27;100487.19;;;12.39;99.80
63111;BME280;49201;53.426;10.300;2022-09-17T01:55:55;100483.75;;;12.40;99.68
63111;BME280;49201;53.426;10.300;2022-09-17T01:58:32;100492.31;;;12.39;99.76
63111;BME280;49201;53.426;10.300;2022-09-17T02:01:04;100493.16;;;12.37;99.61
63111;BME280;49201;53.426;10.300;2022-09-17T02:03:39;100494.81;;;12.30;99.51
63111;BME280;49201;53.426;10.300;2022-09-17T02:06:10;100505.94;;;12.28;99.25
63111;BME280;49201;53.426;10.300;2022-09-17T02:08:45;100499.06;;;12.25;99.50
63111;BME280;49201;53.426;10.300;2022-09-17T02:11:13;100499.91;;;12.21;98.92
63111;BME280;49201;53.426;10.300;2022-09-17T02:13:49;100498.16;;;12.19;99.46
63111;BME280;49201;53.426;10.300;2022-09-17T02:16:21;100506.72;;;12.18;98.95
63111;BME280;49201;53.426;10.300;2022-09-17T02:19:15;100506.72;;;12.16;99.05
63111;BME280;49201;53.426;10.300;2022-09-17T02:21:46;100498.16;;;12.17;99.12
63111;BME280;49201;53.426;10.300;2022-09-17T02:29:49;100499.81;;;12.09;99.44
63111;BME280;49201;53.426;10.300;2022-09-17T02:32:15;100498.94;;;12.09;99.37
63111;BME280;49201;53.426;10.300;2022-09-17T02:34:41;100498.09;;;12.07;99.40
63111;BME280;49201;53.426;10.300;2022-09-17T02:37:06;100498.09;;;12.05;99.42
63111;BME280;49201;53.426;10.300;2022-09-17T02:39:32;100501.50;;;12.04;99.81
63111;BME280;49201;53.426;10.300;2022-09-17T02:48:23;100503.19;;;12.02;99.84
63111;BME280;49201;53.426;10.300;2022-09-17T02:51:22;100504.09;;;12.09;100.00
63111;BME280;49201;53.426;10.300;2022-09-17T02:54:45;100504.94;;;12.11;99.95
63111;BME280;49201;53.426;10.300;2022-09-17T02:57:26;100500.72;;;12.14;99.92
63111;BME280;49201;53.426;10.300;2022-09-17T03:00:30;100499.88;;;12.15;100.00
63111;BME280;49201;53.426;10.300;2022-09-17T03:02:52;100504.97;;;12.14;99.91
63111;BME280;49201;53.426;10.300;2022-09-17T03:05:22;100500.69;;;12.13;100.00
63111;BME280;49201;53.426;10.300;2022-09-17T03:07:49;100500.69;;;12.13;100.00
63111;BME280;49201;53.426;10.300;2022-09-17T03:10:15;100503.25;;;12.11;99.97
63111;BME280;49201;53.426;10.300;2022-09-17T03:12:41;100499.81;;;12.09;100.00
63111;BME280;49201;53.426;10.300;2022-09-17T03:15:06;100498.09;;;12.10;100.00
63111;BME280;49201;53.426;10.300;2022-09-17T03:17:32;100493.78;;;12.06;100.00
63111;BME280;49201;53.426;10.300;2022-09-17T03:19:57;100492.94;;;12.05;100.00
63111;BME280;49201;53.426;10.300;2022-09-17T03:22:23;100496.34;;;12.03;99.99
63111;BME280;49201;53.426;10.300;2022-09-17T03:24:48;100505.75;;;12.02;100.00
63111;BME280;49201;53.426;10.300;2022-09-17T03:27:14;100511.75;;;12.06;99.78
63111;BME280;49201;53.426;10.300;2022-09-17T03:29:40;100506.63;;;12.07;99.77
63111;BME280;49201;53.426;10.300;2022-09-17T03:32:05;100504.03;;;12.03;99.71
63111;BME280;49201;53.426;10.300;2022-09-17T03:34:31;100509.16;;;12.01;99.83
63111;BME280;49201;53.426;10.300;2022-09-17T03:36:57;100498.00;;;11.96;99.46
63111;BME280;49201;53.426;10.300;2022-09-17T03:39:22;100515.13;;;11.97;99.57
63111;BME280;49201;53.426;10.300;2022-09-17T03:41:48;100504.84;;;11.97;99.45
63111;BME280;49201;53.426;10.300;2022-09-17T03:44:13;100504.84;;;11.97;99.58
63111;BME280;49201;53.426;10.300;2022-09-17T03:46:40;100511.72;;;12.01;99.55
63111;BME280;49201;53.426;10.300;2022-09-17T03:49:06;100513.44;;;12.02;99.29
63111;BME280;49201;53.426;10.300;2022-09-17T03:51:32;100518.59;;;12.04;99.65
63111;BME280;49201;53.426;10.300;2022-09-17T03:53:58;100515.16;;;12.05;99.55
63111;BME280;49201;53.426;10.300;2022-09-17T03:56:23;100512.59;;;12.05;99.87
63111;BME280;49201;53.426;10.300;2022-09-17T03:58:49;100515.16;;;12.05;99.84
63111;BME280;49201;53.426;10.300;2022-09-17T04:01:15;100518.59;;;12.04;99.55
63111;BME280;49201;53.426;10.300;2022-09-17T04:03:40;100524.56;;;12.03;99.87
63111;BME280;49201;53.426;10.300;2022-09-17T04:06:06;100525.41;;;12.02;99.81
63111;BME280;49201;53.426;10.300;2022-09-17T04:08:31;100515.13;;;12.02;100.00
63111;BME280;49201;53.426;10.300;2022-09-17T04:10:58;100515.13;;;12.02;100.00
63111;BME280;49201;53.426;10.300;2022-09-17T04:13:23;100515.13;;;12.02;100.00
63111;BME280;49201;53.426;10.300;2022-09-17T04:15:49;100515.13;;;11.97;100.00
63111;BME280;49201;53.426;10.300;2022-09-17T04:18:14;100517.63;;;11.91;99.74
63111;BME280;49201;53.426;10.300;2022-09-17T04:20:40;100523.59;;;11.90;99.89
63111;BME280;49201;53.426;10.300;2022-09-17T04:23:05;100533.00;;;11.90;100.00
63111;BME280;49201;53.426;10.300;2022-09-17T04:25:32;100532.13;;;11.86;99.53
63111;BME280;49201;53.426;10.300;2022-09-17T04:27:57;100540.66;;;11.85;99.92
63111;BME280;49201;53.426;10.300;2022-09-17T04:30:23;100544.09;;;11.86;99.84
63111;BME280;49201;53.426;10.300;2022-09-17T04:32:48;100541.53;;;11.86;99.75
63111;BME280;49201;53.426;10.300;2022-09-17T04:35:14;100550.06;;;11.85;99.41
63111;BME280;49201;53.426;10.300;2022-09-17T04:37:39;100540.66;;;11.84;99.48
63111;BME280;49201;53.426;10.300;2022-09-17T04:40:05;100541.50;;;11.84;99.74
63111;BME280;49201;53.426;10.300;2022-09-17T04:42:35;100551.75;;;11.80;99.49
63111;BME280;49201;53.426;10.300;2022-09-17T04:45:00;100553.44;;;11.81;99.66
63111;BME280;49201;53.426;10.300;2022-09-17T04:47:26;100549.97;;;11.76;99.39
63111;BME280;49201;53.426;10.300;2022-09-17T04:49:51;100554.22;;;11.72;99.39
63111;BME280;49201;53.426;10.300;2022-09-17T04:52:17;100549.94;;;11.73;99.76
63111;BME280;49201;53.426;10.300;2022-09-17T04:54:42;100543.06;;;11.70;99.53
63111;BME280;49201;53.426;10.300;2022-09-17T04:57:08;100547.34;;;11.71;99.84
63111;BME280;49201;53.426;10.300;2022-09-17T04:59:33;100555.91;;;11.70;99.34
63111;BME280;49201;53.426;10.300;2022-09-17T05:01:59;100565.34;;;11.73;100.00
63111;BME280;49201;53.426;10.300;2022-09-17T05:04:24;100562.78;;;11.74;100.00
63111;BME280;49201;53.426;10.300;2022-09-17T05:06:49;100578.19;;;11.76;99.59
63111;BME280;49201;53.426;10.300;2022-09-17T05:09:15;100579.94;;;11.78;99.77
63111;BME280;49201;53.426;10.300;2022-09-17T05:11:40;100584.19;;;11.75;100.00
63111;BME280;49201;53.426;10.300;2022-09-17T05:14:06;100572.19;;;11.74;100.00
63111;BME280;49201;53.426;10.300;2022-09-17T05:16:31;100571.31;;;11.72;100.00
63111;BME280;49201;53.426;10.300;2022-09-17T05:18:57;100568.75;;;11.72;100.00
63111;BME280;49201;53.426;10.300;2022-09-17T05:21:22;100566.13;;;11.69;100.00
63111;BME280;49201;53.426;10.300;2022-09-17T05:23:48;100572.19;;;11.72;100.00
63111;BME280;49201;53.426;10.300;2022-09-17T05:26:14;100579.03;;;11.73;100.00
63111;BME280;49201;53.426;10.300;2022-09-17T05:28:40;100576.47;;;11.76;100.00
63111;BME280;49201;53.426;10.300;2022-09-17T05:31:06;100579.91;;;11.77;100.00
63111;BME280;49201;53.426;10.300;2022-09-17T05:33:31;100572.19;;;11.74;100.00
63111;BME280;49201;53.426;10.300;2022-09-17T05:35:57;100576.41;;;11.70;100.00
63111;BME280;49201;53.426;10.300;2022-09-17T05:38:24;100569.63;;;11.72;100.00
63111;BME280;49201;53.426;10.300;2022-09-17T05:40:49;100573.88;;;11.72;100.00
63111;BME280;49201;53.426;10.300;2022-09-17T05:43:15;100571.34;;;11.76;100.00
63111;BME280;49201;53.426;10.300;2022-09-17T05:45:40;100579.97;;;11.80;100.00
63111;BME280;49201;53.426;10.300;2022-09-17T05:48:09;100579.03;;;11.76;100.00
63111;BME280;49201;53.426;10.300;2022-09-17T05:50:35;100579.91;;;11.75;99.72
63111;BME280;49201;53.426;10.300;2022-09-17T05:53:06;100591.06;;;11.80;99.87
63111;BME280;49201;53.426;10.300;2022-09-17T05:55:32;100580.78;;;11.79;100.00
63111;BME280;49201;53.426;10.300;2022-09-17T05:57:59;100584.25;;;11.82;100.00
63111;BME280;49201;53.426;10.300;2022-09-17T06:00:25;100582.53;;;11.80;100.00
63111;BME280;49201;53.426;10.300;2022-09-17T06:02:54;100579.88;;;11.74;99.80
63111;BME280;49201;53.426;10.300;2022-09-17T06:05:20;100587.69;;;11.84;100.00
63111;BME280;49201;53.426;10.300;2022-09-17T06:07:45;100595.41;;;11.86;100.00
63111;BME280;49201;53.426;10.300;2022-09-17T06:10:11;100593.72;;;11.89;99.21
63111;BME280;49201;53.426;10.300;2022-09-17T06:12:36;100599.69;;;11.88;98.80
63111;BME280;49201;53.426;10.300;2022-09-17T06:15:02;100594.56;;;11.88;98.67
63111;BME280;49201;53.426;10.300;2022-09-17T06:17:32;100599.75;;;11.94;98.51
63111;BME280;49201;53.426;10.300;2022-09-17T06:19:57;100601.47;;;11.97;98.38
63111;BME280;49201;53.426;10.300;2022-09-17T06:22:23;100604.06;;;11.98;98.43
63111;BME280;49201;53.426;10.300;2022-09-17T06:24:48;100607.41;;;11.90;97.99
63111;BME280;49201;53.426;10.300;2022-09-17T06:27:14;100612.53;;;11.88;97.92
63111;BME280;49201;53.426;10.300;2022-09-17T06:29:39;100611.66;;;11.88;98.14
63111;BME280;49201;53.426;10.300;2022-09-17T06:32:07;100610.81;;;11.90;98.25
63111;BME280;49201;53.426;10.300;2022-09-17T06:34:35;100612.56;;;11.90;97.68
63111;BME280;49201;53.426;10.300;2022-09-17T06:37:00;100619.34;;;11.85;97.70
63111;BME280;49201;53.426;10.300;2022-09-17T06:39:26;100603.97;;;11.88;97.61
63111;BME280;49201;53.426;10.300;2022-09-17T06:41:51;100611.66;;;11.86;97.96
63111;BME280;49201;53.426;10.300;2022-09-17T06:44:16;100607.34;;;11.82;98.44
63111;BME280;49201;53.426;10.300;2022-09-17T06:46:42;100616.78;;;11.88;98.30
63111;BME280;49201;53.426;10.300;2022-09-17T06:49:08;100620.28;;;11.91;97.44
63111;BME280;49201;53.426;10.300;2022-09-17T06:51:34;100613.38;;;11.90;97.22
63111;BME280;49201;53.426;10.300;2022-09-17T06:54:00;100605.72;;;11.89;96.14
63111;BME280;49201;53.426;10.300;2022-09-17T06:56:25;100609.97;;;11.90;96.36
63111;BME280;49201;53.426;10.300;2022-09-17T06:58:51;100612.50;;;11.87;95.99
63111;BME280;49201;53.426;10.300;2022-09-17T07:01:17;100620.28;;;11.93;95.57
63111;BME280;49201;53.426;10.300;2022-09-17T07:03:42;100620.28;;;11.94;95.20
63111;BME280;49201;53.426;10.300;2022-09-17T07:06:08;100627.25;;;12.07;94.65
63111;BME280;49201;53.426;10.300;2022-09-17T07:08:35;100619.91;;;12.43;93.76
63111;BME280;49201;53.426;10.300;2022-09-17T07:11:00;100627.97;;;12.90;91.54
63111;BME280;49201;53.426;10.300;2022-09-17T07:13:26;100628.91;;;13.01;90.24
63111;BME280;49201;53.426;10.300;2022-09-17T07:16:00;100623.72;;;12.98;89.95
63111;BME280;49201;53.426;10.300;2022-09-17T07:18:26;100613.66;;;13.34;88.58
63111;BME280;49201;53.426;10.300;2022-09-17T07:20:56;100612.84;;;13.46;87.88
63111;BME280;49201;53.426;10.300;2022-09-17T07:23:33;100604.38;;;13.75;87.20
63111;BME280;49201;53.426;10.300;2022-09-17T07:26:01;100610.41;;;13.83;85.49
63111;BME280;49201;53.426;10.300;2022-09-17T07:28:27;100609.59;;;14.04;84.94
63111;BME280;49201;53.426;10.300;2022-09-17T07:30:53;100595.03;;;14.22;83.91
63111;BME280;49201;53.426;10.300;2022-09-17T07:33:22;100608.78;;;14.32;83.67
63111;BME280;49201;53.426;10.300;2022-09-17T07:35:56;100608.78;;;14.56;83.07
63111;BME280;49201;53.426;10.300;2022-09-17T07:38:23;100607.91;;;14.69;81.85
63111;BME280;49201;53.426;10.300;2022-09-17T07:43:28;100620.56;;;15.65;76.42
63111;BME280;49201;53.426;10.300;2022-09-17T07:45:56;100625.84;;;15.23;77.16
63111;BME280;49201;53.426;10.300;2022-09-17T07:48:22;100628.50;;;14.85;77.73
63111;BME280;49201;53.426;10.300;2022-09-17T07:50:47;100631.13;;;14.58;77.82
63111;BME280;49201;53.426;10.300;2022-09-17T07:53:13;100643.13;;;14.89;78.77
63111;BME280;49201;53.426;10.300;2022-09-17T07:55:39;100632.81;;;14.79;78.29
63111;BME280;49201;53.426;10.300;2022-09-17T07:58:04;100631.13;;;14.58;77.78
63111;BME280;49201;53.426;10.300;2022-09-17T08:00:30;100627.66;;;14.41;78.59
63111;BME280;49201;53.426;10.300;2022-09-17T08:02:56;100624.22;;;14.74;77.69
63111;BME280;49201;53.426;10.300;2022-09-17T08:05:22;100621.53;;;15.20;75.62
63111;BME280;49201;53.426;10.300;2022-09-17T08:07:52;100618.91;;;15.46;74.36
63111;BME280;49201;53.426;10.300;2022-09-17T08:10:19;100614.63;;;15.51;73.10
63111;BME280;49201;53.426;10.300;2022-09-17T08:12:47;100616.25;;;15.67;71.45
63111;BME280;49201;53.426;10.300;2022-09-17T08:15:17;100605.75;;;15.97;70.75
63111;BME280;49201;53.426;10.300;2022-09-17T08:17:44;100598.78;;;16.08;71.17
63111;BME280;49201;53.426;10.300;2022-09-17T08:20:10;100612.66;;;15.92;71.72
63111;BME280;49201;53.426;10.300;2022-09-17T08:22:35;100617.75;;;16.02;72.38
63111;BME280;49201;53.426;10.300;2022-09-17T08:25:00;100604.72;;;16.22;71.79
63111;BME280;49201;53.426;10.300;2022-09-17T08:27:31;100608.81;;;16.50;71.45
63111;BME280;49201;53.426;10.300;2022-09-17T08:29:57;100605.19;;;16.73;70.79
63111;BME280;49201;53.426;10.300;2022-09-17T08:32:23;100608.81;;;16.50;70.91
63111;BME280;49201;53.426;10.300;2022-09-17T08:34:49;100598.34;;;16.63;69.32
63111;BME280;49201;53.426;10.300;2022-09-17T08:37:14;100603.44;;;16.74;68.76
63111;BME280;49201;53.426;10.300;2022-09-17T08:39:40;100598.22;;;16.78;68.31
63111;BME280;49201;53.426;10.300;2022-09-17T08:42:31;100605.53;;;17.22;68.94
63111;BME280;49201;53.426;10.300;2022-09-17T08:45:04;100602.75;;;17.38;66.19
63111;BME280;49201;53.426;10.300;2022-09-17T08:47:34;100609.34;;;17.65;66.14
63111;BME280;49201;53.426;10.300;2022-09-17T08:50:05;100596.91;;;17.18;67.20
63111;BME280;49201;53.426;10.300;2022-09-17T09:01:03;100586.44;;;17.95;63.19
63111;BME280;49201;53.426;10.300;2022-09-17T09:06:17;100584.09;;;18.36;62.13
63111;BME280;49201;53.426;10.300;2022-09-17T09:09:01;100577.47;;;18.69;60.84
63111;BME280;49201;53.426;10.300;2022-09-17T09:11:30;100565.34;;;18.71;58.58
63111;BME280;49201;53.426;10.300;2022-09-17T09:16:47;100561.78;;;19.20;53.96
63111;BME280;49201;53.426;10.300;2022-09-17T09:19:21;100559.00;;;21.09;51.72
63111;BME280;49201;53.426;10.300;2022-09-17T09:22:51;100548.25;;;23.75;42.84
63111;BME280;49201;53.426;10.300;2022-09-17T09:27:49;100552.84;;;21.42;47.10
63111;BME280;49201;53.426;10.300;2022-09-17T09:30:18;100538.16;;;23.66;44.23
63111;BME280;49201;53.426;10.300;2022-09-17T09:35:25;100536.53;;;24.28;41.59
63111;BME280;49201;53.426;10.300;2022-09-17T09:37:59;100533.22;;;24.45;41.85
63111;BME280;49201;53.426;10.300;2022-09-17T09:40:47;100549.63;;;22.69;43.50
63111;BME280;49201;53.426;10.300;2022-09-17T09:43:21;100570.56;;;19.56;53.63
63111;BME280;49201;53.426;10.300;2022-09-17T09:46:07;100585.53;;;18.52;60.12
63111;BME280;49201;53.426;10.300;2022-09-17T09:57:23;100532.91;;;27.22;37.05
63111;BME280;49201;53.426;10.300;2022-09-17T10:03:24;100562.81;;;23.61;42.00
63111;BME280;49201;53.426;10.300;2022-09-17T10:08:29;100552.81;;;24.56;39.57
63111;BME280;49201;53.426;10.300;2022-09-17T10:11:18;100570.75;;;22.09;43.90
63111;BME280;49201;53.426;10.300;2022-09-17T10:13:44;100544.69;;;26.30;35.19
63111;BME280;49201;53.426;10.300;2022-09-17T10:16:21;100554.03;;;25.08;37.33
63111;BME280;49201;53.426;10.300;2022-09-17T10:18:49;100561.38;;;26.29;34.59
63111;BME280;49201;53.426;10.300;2022-09-17T10:21:37;100573.69;;;21.98;41.87
63111;BME280;49201;53.426;10.300;2022-09-17T10:24:21;100574.19;;;20.60;44.69
63111;BME280;49201;53.426;10.300;2022-09-17T10:26:48;100583.28;;;19.30;48.23
63111;BME280;49201;53.426;10.300;2022-09-17T10:29:17;100589.19;;;18.89;49.47
63111;BME280;49201;53.426;10.300;2022-09-17T10:31:49;100588.72;;;18.69;50.41
63111;BME280;49201;53.426;10.300;2022-09-17T10:34:24;100582.59;;;18.20;52.28
63111;BME280;49201;53.426;10.300;2022-09-17T10:36:50;100587.00;;;18.15;52.94
63111;BME280;49201;53.426;10.300;2022-09-17T10:44:25;100582.03;;;18.56;52.91
63111;BME280;49201;53.426;10.300;2022-09-17T10:46:51;100578.41;;;18.13;55.21
63111;BME280;49201;53.426;10.300;2022-09-17T10:51:48;100585.06;;;18.79;53.21
63111;BME280;49201;53.426;10.300;2022-09-17T10:56:48;100586.28;;;18.60;53.44
63111;BME280;49201;53.426;10.300;2022-09-17T11:05:17;100553.56;;;25.18;39.94
63111;BME280;49201;53.426;10.300;2022-09-17T11:15:40;100554.44;;;20.83;47.80
63111;BME280;49201;53.426;10.300;2022-09-17T11:26:00;100572.72;;;18.45;55.12
63111;BME280;49201;53.426;10.300;2022-09-17T11:31:26;100567.41;;;17.33;59.17
63111;BME280;49201;53.426;10.300;2022-09-17T11:34:23;100569.47;;;18.29;56.72
63111;BME280;49201;53.426;10.300;2022-09-17T11:37:05;100566.47;;;18.03;56.50
63111;BME280;49201;53.426;10.300;2022-09-17T11:39:44;100569.41;;;17.10;60.42
63111;BME280;49201;53.426;10.300;2022-09-17T11:42:17;100562.03;;;16.75;62.99
63111;BME280;49201;53.426;10.300;2022-09-17T11:44:57;100572.13;;;16.04;64.08
63111;BME280;49201;53.426;10.300;2022-09-17T11:47:31;100573.31;;;15.43;66.81
63111;BME280;49201;53.426;10.300;2022-09-17T11:50:08;100567.16;;;15.74;66.39
63111;BME280;49201;53.426;10.300;2022-09-17T11:52:55;100574.31;;;15.12;68.29
63111;BME280;49201;53.426;10.300;2022-09-17T11:55:38;100561.19;;;15.65;66.42
63111;BME280;49201;53.426;10.300;2022-09-17T11:58:42;100560.00;;;17.74;61.76
63111;BME280;49201;53.426;10.300;2022-09-17T12:01:11;100548.28;;;17.47;60.60
63111;BME280;49201;53.426;10.300;2022-09-17T12:03:47;100550.44;;;17.76;59.66
63111;BME280;49201;53.426;10.300;2022-09-17T12:06:18;100548.53;;;17.23;60.75
63111;BME280;49201;53.426;10.300;2022-09-17T12:08:56;100546.59;;;16.69;63.00
63111;BME280;49201;53.426;10.300;2022-09-17T12:11:33;100547.69;;;16.44;63.84
63111;BME280;49201;53.426;10.300;2022-09-17T12:14:04;100544.72;;;16.83;63.10
63111;BME280;49201;53.426;10.300;2022-09-17T12:16:41;100546.84;;;16.38;63.29
63111;BME280;49201;53.426;10.300;2022-09-17T12:21:55;100538.94;;;16.62;62.96
63111;BME280;49201;53.426;10.300;2022-09-17T12:24:23;100534.47;;;16.73;63.49
63111;BME280;49201;53.426;10.300;2022-09-17T12:32:40;100537.59;;;16.16;67.17
63111;BME280;49201;53.426;10.300;2022-09-17T12:47:32;100527.31;;;16.99;65.10
63111;BME280;49201;53.426;10.300;2022-09-17T12:53:11;100532.16;;;16.49;68.07
63111;BME280;49201;53.426;10.300;2022-09-17T13:03:42;100528.69;;;15.20;73.48
63111;BME280;49201;53.426;10.300;2022-09-17T13:14:16;100510.16;;;15.98;71.13
63111;BME280;49201;53.426;10.300;2022-09-17T13:17:04;100506.25;;;16.53;69.57
63111;BME280;49201;53.426;10.300;2022-09-17T13:19:39;100514.53;;;15.90;70.61
63111;BME280;49201;53.426;10.300;2022-09-17T13:22:18;100506.47;;;16.28;70.92
63111;BME280;49201;53.426;10.300;2022-09-17T13:24:45;100502.31;;;16.12;71.10
63111;BME280;49201;53.426;10.300;2022-09-17T13:27:24;100490.91;;;17.12;68.30
63111;BME280;49201;53.426;10.300;2022-09-17T13:40:24;100489.13;;;16.43;70.99
63111;BME280;49201;53.426;10.300;2022-09-17T13:42:52;100481.50;;;16.28;70.88
63111;BME280;49201;53.426;10.300;2022-09-17T13:45:23;100479.78;;;16.26;71.81
63111;BME280;49201;53.426;10.300;2022-09-17T13:47:57;100483.38;;;16.10;70.42
63111;BME280;49201;53.426;10.300;2022-09-17T13:52:54;100487.94;;;15.78;72.31
63111;BME280;49201;53.426;10.300;2022-09-17T13:55:40;100496.72;;;15.56;73.60
63111;BME280;49201;53.426;10.300;2022-09-17T14:21:54;100476.38;;;17.02;74.03
63111;BME280;49201;53.426;10.300;2022-09-17T14:24:31;100481.19;;;17.28;72.46
63111;BME280;49201;53.426;10.300;2022-09-17T14:30:05;100482.47;;;17.60;71.98
63111;BME280;49201;53.426;10.300;2022-09-17T14:38:19;100483.94;;;16.42;73.81
63111;BME280;49201;53.426;10.300;2022-09-17T14:40:47;100495.38;;;16.18;75.93
63111;BME280;49201;53.426;10.300;2022-09-17T14:43:20;100486.81;;;16.09;76.15
63111;BME280;49201;53.426;10.300;2022-09-17T14:45:52;100506.81;;;15.86;79.55
63111;BME280;49201;53.426;10.300;2022-09-17T14:50:49;100505.41;;;15.31;81.89
63111;BME280;49201;53.426;10.300;2022-09-17T14:53:17;100501.22;;;15.10;80.13
63111;BME280;49201;53.426;10.300;2022-09-17T14:55:48;100512.53;;;14.73;78.11
63111;BME280;49201;53.426;10.300;2022-09-17T14:58:32;100518.53;;;14.69;78.64
63111;BME280;49201;53.426;10.300;2022-09-17T15:00:59;100509.97;;;14.66;78.73
63111;BME280;49201;53.426;10.300;2022-09-17T15:03:25;100510.00;;;14.52;78.33
63111;BME280;49201;53.426;10.300;2022-09-17T15:05:50;100516.00;;;14.51;78.45
63111;BME280;49201;53.426;10.300;2022-09-17T15:10:47;100515.19;;;14.36;78.76
63111;BME280;49201;53.426;10.300;2022-09-17T15:13:17;100521.19;;;14.47;80.20
63111;BME280;49201;53.426;10.300;2022-09-17T15:15:55;100523.75;;;14.44;80.74
63111;BME280;49201;53.426;10.300;2022-09-17T15:18:28;100535.78;;;14.21;80.82
63111;BME280;49201;53.426;10.300;2022-09-17T15:20:56;100538.34;;;14.10;82.14
63111;BME280;49201;53.426;10.300;2022-09-17T15:23:26;100548.63;;;14.06;83.46
63111;BME280;49201;53.426;10.300;2022-09-17T15:25:56;100534.06;;;14.05;83.65
63111;BME280;49201;53.426;10.300;2022-09-17T15:28:38;100536.59;;;13.84;84.08
63111;BME280;49201;53.426;10.300;2022-09-17T15:31:18;100543.47;;;13.74;84.57
63111;BME280;49201;53.426;10.300;2022-09-17T15:33:45;100543.47;;;13.74;85.32
63111;BME280;49201;53.426;10.300;2022-09-17T15:36:16;100541.72;;;13.69;86.34
63111;BME280;49201;53.426;10.300;2022-09-17T15:38:43;100545.13;;;13.50;86.46
63111;BME280;49201;53.426;10.300;2022-09-17T15:44:05;100542.53;;;13.44;88.66
63111;BME280;49201;53.426;10.300;2022-09-17T15:46:31;100545.97;;;13.41;89.09
63111;BME280;49201;53.426;10.300;2022-09-17T15:48:59;100536.53;;;13.39;89.85
63111;BME280;49201;53.426;10.300;2022-09-17T15:51:32;100542.53;;;13.42;89.73
63111;BME280;49201;53.426;10.300;2022-09-17T15:54:00;100543.38;;;13.46;90.14
63111;BME280;49201;53.426;10.300;2022-09-17T15:56:35;100547.69;;;13.54;90.15
63111;BME280;49201;53.426;10.300;2022-09-17T15:59:25;100547.72;;;13.57;90.92
63111;BME280;49201;53.426;10.300;2022-09-17T16:01:52;100548.59;;;13.59;90.93
63111;BME280;49201;53.426;10.300;2022-09-17T16:04:29;100552.00;;;13.60;90.55
63111;BME280;49201;53.426;10.300;2022-09-17T16:09:39;100552.03;;;13.63;91.43
63111;BME280;49201;53.426;10.300;2022-09-17T16:12:06;100565.72;;;13.59;91.49